createdAt,value
2023-04-13T00:00:08.909Z,20.93
2023-04-13T00:05:12.232Z,22.63
2023-04-13T00:10:16.351Z,39.93
2023-04-13T00:15:19.930Z,22.60
2023-04-13T00:20:22.202Z,26.30
2023-04-13T00:25:24.519Z,30.50
2023-04-13T00:30:26.785Z,23.17
2023-04-13T00:35:29.048Z,21.83
2023-04-13T00:40:32.562Z,21.10
2023-04-13T00:45:39.336Z,15.37
2023-04-13T00:50:42.634Z,22.33
2023-04-13T00:55:45.171Z,21.47
2023-04-13T01:00:47.469Z,23.83
2023-04-13T01:06:14.618Z,19.60
2023-04-13T01:11:28.674Z,23.77
2023-04-13T01:16:40.776Z,23.37
2023-04-13T01:21:44.325Z,15.70
2023-04-13T01:27:13.828Z,20.00
2023-04-13T01:32:16.770Z,23.37
2023-04-13T01:37:20.237Z,21.60
2023-04-13T01:42:24.584Z,15.37
2023-04-13T01:47:28.431Z,21.50
2023-04-13T01:52:41.843Z,19.40
2023-04-13T01:57:48.909Z,20.20
2023-04-13T02:02:54.718Z,23.70
2023-04-13T02:07:57.247Z,21.43
2023-04-13T02:12:59.623Z,21.50
2023-04-13T02:18:02.464Z,22.00
2023-04-13T02:23:04.894Z,19.53
2023-04-13T02:28:09.319Z,23.70
2023-04-13T02:33:11.596Z,20.47
2023-04-13T02:38:14.237Z,26.23
2023-04-13T02:43:19.417Z,45.53
2023-04-13T02:48:22.244Z,29.73
2023-04-13T02:53:25.612Z,34.10
2023-04-13T02:58:32.964Z,38.60
2023-04-13T03:03:42.233Z,47.23
2023-04-13T03:08:46.632Z,48.23
2023-04-13T03:13:59.246Z,44.57
2023-04-13T03:19:02.035Z,52.80
2023-04-13T03:24:05.701Z,60.63
2023-04-13T03:29:08.683Z,42.43
2023-04-13T03:34:16.547Z,49.53
2023-04-13T03:39:21.150Z,48.67
2023-04-13T03:44:23.662Z,51.27
2023-04-13T03:49:27.549Z,43.03
2023-04-13T03:54:30.067Z,49.33
2023-04-13T03:59:34.678Z,25.80
2023-04-13T04:04:38.737Z,24.77
2023-04-13T04:09:42.932Z,27.03
2023-04-13T04:14:45.707Z,19.27
2023-04-13T04:19:53.737Z,20.20
2023-04-13T04:25:00.374Z,24.73
2023-04-13T04:30:05.803Z,23.13
2023-04-13T04:35:12.419Z,19.13
2023-04-13T04:40:23.022Z,25.80
2023-04-13T04:45:27.887Z,21.83
2023-04-13T04:50:33.751Z,26.30
2023-04-13T04:55:46.944Z,18.07
2023-04-13T05:01:00.942Z,21.00
2023-04-13T05:06:05.594Z,21.47
2023-04-13T05:11:09.232Z,22.17
2023-04-13T05:16:12.424Z,20.13
2023-04-13T05:21:16.133Z,23.27
2023-04-13T05:26:21.048Z,18.77
2023-04-13T05:31:26.337Z,34.77
2023-04-13T05:36:32.611Z,19.30
2023-04-13T05:41:39.510Z,21.10
2023-04-13T05:46:42.718Z,15.70
2023-04-13T05:51:45.168Z,19.23
2023-04-13T05:56:48.103Z,17.13
2023-04-13T06:02:12.531Z,18.40
2023-04-13T06:07:18.127Z,15.30
2023-04-13T06:12:20.719Z,17.97
2023-04-13T06:17:23.109Z,15.70
2023-04-13T06:22:25.807Z,17.47
2023-04-13T06:27:28.654Z,15.40
2023-04-13T06:32:31.735Z,16.23
2023-04-13T06:37:36.024Z,13.30
2023-04-13T06:42:40.776Z,16.30
2023-04-13T06:48:21.660Z,16.17
2023-04-13T06:53:29.321Z,20.77
2023-04-13T06:58:32.423Z,21.57
2023-04-13T07:03:34.963Z,16.30
2023-04-13T07:08:38.913Z,13.37
2023-04-13T07:13:44.475Z,21.53
2023-04-13T07:18:48.977Z,14.63
2023-04-13T07:23:51.521Z,14.03
2023-04-13T07:28:54.261Z,9.17
2023-04-13T07:33:59.554Z,14.30
2023-04-13T07:39:09.873Z,12.73
2023-04-13T07:44:15.452Z,10.33
2023-04-13T07:49:18.148Z,12.63
2023-04-13T07:54:22.467Z,7.30
2023-04-13T07:59:26.749Z,16.97
2023-04-13T08:04:30.455Z,15.87
2023-04-13T08:09:40.338Z,7.60
2023-04-13T08:14:43.415Z,11.88
2023-04-13T08:19:49.082Z,9.03
2023-04-13T08:24:51.608Z,7.27
2023-04-13T08:30:00.992Z,8.00
2023-04-13T08:35:12.040Z,8.17
2023-04-13T08:40:15.260Z,3.97
2023-04-13T08:45:20.723Z,7.70
2023-04-13T08:50:28.576Z,15.60
2023-04-13T08:55:32.847Z,6.10
2023-04-13T09:00:36.578Z,5.53
2023-04-13T09:05:39.892Z,4.13
2023-04-13T09:10:42.577Z,5.93
2023-04-13T09:15:47.652Z,7.63
2023-04-13T09:21:15.939Z,7.57
2023-04-13T09:26:19.599Z,5.97
2023-04-13T09:31:22.199Z,9.07
2023-04-13T09:36:26.263Z,11.37
2023-04-13T09:41:29.324Z,6.43
2023-04-13T09:46:31.718Z,9.53
2023-04-13T09:51:37.572Z,5.00
2023-04-13T09:56:47.519Z,4.77
2023-04-13T10:01:51.558Z,7.53
2023-04-13T10:06:54.332Z,5.27
2023-04-13T10:11:58.089Z,5.13
2023-04-13T10:17:34.801Z,5.50
2023-04-13T10:22:38.182Z,5.10
2023-04-13T10:27:40.539Z,6.93
2023-04-13T10:32:43.105Z,6.07
2023-04-13T10:37:46.939Z,5.23
2023-04-13T10:42:53.223Z,4.70
2023-04-13T10:47:56.741Z,4.97
2023-04-13T10:53:02.410Z,3.83
2023-04-13T10:58:17.071Z,6.87
2023-04-13T11:03:19.680Z,3.47
2023-04-13T11:08:22.183Z,3.30
2023-04-13T11:13:29.979Z,4.87
2023-04-13T11:18:32.883Z,5.93
2023-04-13T11:23:36.439Z,3.47
2023-04-13T11:28:42.958Z,5.80
2023-04-13T11:33:49.217Z,4.57
2023-04-13T11:38:52.565Z,5.17
2023-04-13T11:43:55.074Z,3.90
2023-04-13T11:48:59.389Z,4.10
2023-04-13T11:54:02.541Z,4.20
2023-04-13T11:59:08.990Z,9.83
2023-04-13T12:04:16.379Z,4.47
2023-04-13T12:09:22.153Z,6.93
2023-04-13T12:19:30.795Z,4.63
2023-04-13T12:24:39.512Z,4.43
2023-04-13T12:29:42.057Z,7.22
2023-04-13T12:34:45.221Z,5.23
2023-04-13T12:39:48.045Z,5.57
2023-04-13T12:44:50.367Z,3.57
2023-04-13T12:49:52.834Z,4.53
2023-04-13T12:54:55.796Z,4.33
2023-04-13T12:59:58.274Z,4.77
2023-04-13T13:05:00.700Z,4.63
2023-04-13T13:10:05.000Z,8.50
2023-04-13T13:15:15.122Z,6.07
2023-04-13T13:20:17.620Z,4.33
2023-04-13T13:25:20.033Z,2.80
2023-04-13T13:30:22.357Z,5.50
2023-04-13T13:35:24.664Z,4.13
2023-04-13T13:40:27.079Z,6.67
2023-04-13T13:45:29.413Z,6.60
2023-04-13T13:50:32.036Z,5.23
2023-04-13T13:55:36.947Z,6.73
2023-04-13T14:00:40.159Z,4.67
2023-04-13T14:05:43.705Z,5.47
2023-04-13T14:10:49.664Z,3.93
2023-04-13T14:15:52.226Z,5.67
2023-04-13T14:20:54.708Z,4.10
2023-04-13T14:25:57.099Z,7.33
2023-04-13T14:30:59.551Z,4.43
2023-04-13T14:36:02.046Z,8.33
2023-04-13T14:41:04.518Z,4.53
2023-04-13T14:46:07.022Z,4.57
2023-04-13T14:51:16.423Z,6.53
2023-04-13T14:56:18.824Z,10.77
2023-04-13T15:01:22.434Z,4.53
2023-04-13T15:06:25.607Z,4.70
2023-04-13T15:11:28.079Z,5.17
2023-04-13T15:16:30.825Z,4.00
2023-04-13T15:21:34.200Z,23.87
2023-04-13T15:26:41.419Z,10.87
2023-04-13T15:31:43.957Z,4.47
2023-04-13T15:36:46.397Z,3.27
2023-04-13T15:41:48.864Z,3.20
2023-04-13T15:46:51.310Z,6.97
2023-04-13T15:51:53.969Z,6.70
2023-04-13T15:56:56.385Z,6.13
2023-04-13T16:01:58.845Z,3.53
2023-04-13T16:07:12.657Z,4.27
2023-04-13T16:12:15.736Z,3.17
2023-04-13T16:17:18.901Z,3.90
2023-04-13T16:22:21.252Z,5.27
2023-04-13T16:27:23.564Z,5.40
2023-04-13T16:32:25.950Z,5.10
2023-04-13T16:37:28.283Z,4.10
2023-04-13T16:42:30.748Z,4.90
2023-04-13T16:47:33.292Z,6.23
2023-04-13T16:52:36.534Z,5.33
2023-04-13T16:57:38.835Z,9.37
2023-04-13T17:02:42.671Z,8.73
2023-04-13T17:07:47.078Z,4.77
2023-04-13T17:12:49.474Z,4.53
2023-04-13T17:17:51.880Z,4.10
2023-04-13T17:22:54.522Z,3.00
2023-04-13T17:27:56.772Z,5.70
2023-04-13T17:33:00.688Z,4.67
2023-04-13T17:38:03.081Z,2.87
2023-04-13T17:43:07.829Z,4.73
2023-04-13T17:48:12.000Z,6.23
2023-04-13T17:53:15.391Z,2.23
2023-04-13T17:58:17.893Z,14.77
2023-04-13T18:03:21.330Z,5.47
2023-04-13T18:08:23.944Z,7.03
2023-04-13T18:13:27.695Z,5.53
2023-04-13T18:18:30.193Z,4.30
2023-04-13T18:23:32.582Z,2.77
2023-04-13T18:28:36.268Z,3.37
2023-04-13T18:33:38.666Z,3.93
2023-04-13T18:38:41.286Z,6.10
2023-04-13T18:43:43.765Z,1.80
2023-04-13T18:48:47.294Z,5.60
2023-04-13T18:53:50.350Z,6.00
2023-04-13T18:58:52.981Z,3.83
2023-04-13T19:03:55.663Z,4.40
2023-04-13T19:08:58.170Z,5.47
2023-04-13T19:14:00.926Z,3.13
2023-04-13T19:19:03.672Z,8.70
2023-04-13T19:24:06.925Z,4.47
2023-04-13T19:29:13.063Z,3.23
2023-04-13T19:34:16.078Z,6.33
2023-04-13T19:39:18.611Z,6.53
2023-04-13T19:44:21.121Z,8.00
2023-04-13T19:49:23.616Z,4.40
2023-04-13T19:54:28.643Z,5.60
2023-04-13T19:59:31.058Z,3.47
2023-04-13T20:04:34.182Z,6.83
2023-04-13T20:09:36.758Z,2.60
2023-04-13T20:14:42.403Z,3.83
2023-04-13T20:19:44.906Z,3.17
2023-04-13T20:24:47.517Z,9.07
2023-04-13T20:29:51.487Z,3.03
2023-04-13T20:34:55.765Z,3.37
2023-04-13T20:39:58.079Z,2.70
2023-04-13T20:45:00.596Z,2.50
2023-04-13T20:50:05.187Z,2.93
2023-04-13T20:55:10.084Z,2.10
2023-04-13T21:00:15.791Z,1.10
2023-04-13T21:05:22.531Z,2.47
2023-04-13T21:10:24.966Z,2.43
2023-04-13T21:15:27.351Z,2.20
2023-04-13T21:20:29.737Z,2.47
2023-04-13T21:25:32.125Z,2.67
2023-04-13T21:30:34.439Z,1.90
2023-04-13T21:35:36.820Z,2.67
2023-04-13T21:40:39.242Z,1.60
2023-04-13T21:45:41.586Z,1.63
2023-04-13T21:50:43.982Z,2.23
2023-04-13T21:55:46.333Z,1.53
2023-04-13T22:00:51.876Z,1.60
2023-04-13T22:05:54.298Z,2.63
2023-04-13T22:10:56.573Z,3.17
2023-04-13T22:15:59.262Z,2.43
2023-04-13T22:21:01.649Z,1.40
2023-04-13T22:26:04.279Z,1.50
2023-04-13T22:31:08.346Z,3.73
2023-04-13T22:36:20.142Z,1.23
2023-04-13T22:41:22.540Z,1.20
2023-04-13T22:46:25.056Z,3.83
2023-04-13T22:51:28.746Z,14.43
2023-04-13T22:56:31.902Z,1.67
2023-04-13T23:01:34.242Z,2.70
2023-04-13T23:06:36.805Z,1.80
2023-04-13T23:11:39.315Z,1.83
2023-04-13T23:16:41.730Z,3.90
2023-04-13T23:21:44.077Z,1.60
2023-04-13T23:26:46.577Z,4.67
2023-04-13T23:31:48.904Z,4.20
2023-04-13T23:36:51.385Z,2.97
2023-04-13T23:41:53.782Z,2.13
2023-04-13T23:46:56.493Z,1.53
2023-04-13T23:52:00.960Z,2.70
2023-04-13T23:57:03.614Z,3.47
